createdAt,value
2017-08-02T00:01:36.126Z,3.60
2017-08-02T00:04:05.374Z,4.00
2017-08-02T00:06:35.417Z,3.37
2017-08-02T00:09:04.665Z,4.37
2017-08-02T00:11:33.911Z,4.10
2017-08-02T00:14:03.294Z,6.93
2017-08-02T00:16:32.545Z,3.43
2017-08-02T00:19:01.842Z,4.00
2017-08-02T00:21:31.081Z,4.77
2017-08-02T00:24:00.374Z,4.43
2017-08-02T00:26:29.809Z,4.40
2017-08-02T00:28:59.067Z,4.60
2017-08-02T00:31:28.311Z,4.20
2017-08-02T00:33:58.369Z,5.73
2017-08-02T00:36:28.448Z,4.80
2017-08-02T00:38:58.014Z,4.60
2017-08-02T00:41:27.270Z,5.00
2017-08-02T00:43:56.539Z,4.17
2017-08-02T00:46:25.820Z,4.60
2017-08-02T00:48:55.085Z,6.07
2017-08-02T00:51:24.349Z,4.40
2017-08-02T00:53:54.377Z,4.40
2017-08-02T00:56:23.635Z,4.50
2017-08-02T00:58:52.893Z,4.37
2017-08-02T01:01:22.158Z,5.40
2017-08-02T01:03:51.410Z,4.80
2017-08-02T01:06:20.760Z,4.10
2017-08-02T01:08:50.003Z,4.73
2017-08-02T01:11:19.412Z,5.00
2017-08-02T01:13:48.669Z,4.20
2017-08-02T01:16:17.927Z,4.70
2017-08-02T01:18:47.513Z,4.47
2017-08-02T01:21:16.801Z,4.80
2017-08-02T01:23:46.129Z,4.33
2017-08-02T01:26:15.390Z,3.97
2017-08-02T01:28:45.421Z,4.07
2017-08-02T01:31:14.708Z,4.27
2017-08-02T01:33:43.946Z,4.70
2017-08-02T01:36:13.222Z,5.70
2017-08-02T01:38:43.257Z,4.77
2017-08-02T01:41:12.503Z,4.80
2017-08-02T01:43:41.765Z,4.70
2017-08-02T01:46:11.009Z,4.90
2017-08-02T01:48:40.255Z,4.17
2017-08-02T01:51:09.526Z,4.37
2017-08-02T01:53:38.906Z,4.70
2017-08-02T01:56:08.221Z,4.60
2017-08-02T01:58:37.481Z,5.37
2017-08-02T02:01:06.771Z,4.67
2017-08-02T02:03:36.029Z,5.13
2017-08-02T02:06:05.449Z,4.80
2017-08-02T02:08:35.505Z,4.40
2017-08-02T02:11:04.791Z,4.13
2017-08-02T02:13:34.039Z,4.40
2017-08-02T02:16:03.297Z,4.60
2017-08-02T02:18:32.565Z,4.30
2017-08-02T02:21:02.089Z,5.50
2017-08-02T02:23:32.119Z,4.40
2017-08-02T02:26:01.362Z,4.03
2017-08-02T02:28:30.678Z,4.07
2017-08-02T02:30:59.957Z,3.70
2017-08-02T02:33:29.214Z,4.30
2017-08-02T02:35:59.249Z,4.47
2017-08-02T02:38:28.498Z,4.73
2017-08-02T02:40:57.765Z,5.10
2017-08-02T02:43:27.021Z,4.40
2017-08-02T02:45:57.069Z,4.47
2017-08-02T02:48:26.318Z,4.60
2017-08-02T02:50:55.608Z,4.37
2017-08-02T02:53:24.942Z,4.33
2017-08-02T02:55:54.197Z,4.27
2017-08-02T02:58:23.479Z,4.73
2017-08-02T03:00:52.746Z,4.10
2017-08-02T03:03:22.802Z,4.47
2017-08-02T03:05:52.053Z,4.27
2017-08-02T03:08:21.329Z,4.60
2017-08-02T03:10:50.622Z,3.77
2017-08-02T03:13:19.865Z,4.33
2017-08-02T03:15:49.972Z,4.20
2017-08-02T03:18:19.267Z,4.40
2017-08-02T03:20:48.560Z,4.60
2017-08-02T03:23:17.833Z,3.97
2017-08-02T03:25:47.229Z,4.30
2017-08-02T03:28:16.489Z,3.83
2017-08-02T03:30:46.503Z,4.07
2017-08-02T03:33:15.776Z,4.20
2017-08-02T03:35:45.012Z,4.10
2017-08-02T03:38:14.262Z,3.57
2017-08-02T03:40:43.541Z,4.10
2017-08-02T03:43:12.829Z,4.33
2017-08-02T03:45:42.087Z,4.03
2017-08-02T03:48:11.338Z,4.80
2017-08-02T03:50:41.366Z,4.20
2017-08-02T03:53:10.643Z,4.30
2017-08-02T03:55:39.909Z,3.87
2017-08-02T03:58:09.168Z,4.30
2017-08-02T04:00:38.449Z,5.20
2017-08-02T04:03:08.461Z,3.80
2017-08-02T04:05:37.737Z,3.93
2017-08-02T04:08:06.995Z,5.00
2017-08-02T04:10:36.250Z,5.17
2017-08-02T04:13:05.803Z,4.80
2017-08-02T04:15:35.077Z,4.30
2017-08-02T04:18:05.142Z,4.00
2017-08-02T04:20:34.425Z,4.53
2017-08-02T04:23:03.689Z,4.20
2017-08-02T04:25:33.007Z,4.20
2017-08-02T04:28:02.292Z,4.10
2017-08-02T04:30:31.521Z,3.27
2017-08-02T04:33:00.774Z,3.50
2017-08-02T04:35:30.023Z,3.80
2017-08-02T04:37:59.705Z,4.23
2017-08-02T04:40:28.957Z,4.03
2017-08-02T04:42:58.265Z,4.20
2017-08-02T04:45:27.514Z,4.10
2017-08-02T04:47:57.572Z,4.70
2017-08-02T04:50:26.829Z,4.33
2017-08-02T04:52:56.119Z,3.90
2017-08-02T04:55:25.370Z,4.30
2017-08-02T04:57:54.620Z,4.00
2017-08-02T05:00:23.878Z,4.50
2017-08-02T05:02:53.127Z,4.47
2017-08-02T05:05:22.542Z,3.70
2017-08-02T05:07:52.570Z,4.07
2017-08-02T05:10:21.850Z,3.97
2017-08-02T05:12:51.122Z,3.90
2017-08-02T05:15:20.353Z,3.73
2017-08-02T05:17:49.634Z,4.80
2017-08-02T05:20:18.889Z,3.93
2017-08-02T05:22:48.158Z,3.37
2017-08-02T05:25:17.402Z,3.60
2017-08-02T05:27:46.685Z,3.77
2017-08-02T05:30:15.930Z,3.77
2017-08-02T05:32:45.190Z,4.67
2017-08-02T05:35:14.842Z,3.73
2017-08-02T05:37:44.108Z,4.03
2017-08-02T05:40:13.565Z,3.70
2017-08-02T05:42:42.857Z,3.50
2017-08-02T05:45:12.114Z,3.63
2017-08-02T05:47:41.406Z,3.40
2017-08-02T05:50:10.801Z,3.00
2017-08-02T05:52:40.051Z,2.93
2017-08-02T05:55:09.346Z,3.07
2017-08-02T05:57:38.613Z,3.20
2017-08-02T06:00:08.026Z,3.57
2017-08-02T06:02:37.281Z,3.03
2017-08-02T06:05:06.566Z,2.60
2017-08-02T06:07:35.853Z,3.00
2017-08-02T06:10:05.121Z,3.50
2017-08-02T06:12:34.410Z,3.00
2017-08-02T06:15:03.667Z,2.93
2017-08-02T06:17:32.935Z,2.83
2017-08-02T06:20:02.214Z,2.30
2017-08-02T06:22:32.226Z,2.20
2017-08-02T06:25:01.506Z,2.20
2017-08-02T06:27:30.758Z,2.33
2017-08-02T06:30:00.009Z,2.33
2017-08-02T06:32:29.290Z,2.03
2017-08-02T06:34:58.558Z,1.60
2017-08-02T06:37:27.802Z,1.80
2017-08-02T06:39:57.057Z,1.93
2017-08-02T06:42:26.345Z,2.10
2017-08-02T06:44:56.349Z,1.77
2017-08-02T06:47:25.622Z,1.53
2017-08-02T06:49:54.892Z,2.10
2017-08-02T06:52:24.323Z,1.50
2017-08-02T06:54:53.671Z,2.10
2017-08-02T06:57:22.949Z,1.77
2017-08-02T06:59:52.254Z,1.97
2017-08-02T07:02:22.276Z,2.07
2017-08-02T07:04:51.538Z,1.80
2017-08-02T07:07:20.808Z,1.17
2017-08-02T07:09:50.066Z,1.73
2017-08-02T07:12:19.398Z,1.73
2017-08-02T07:14:48.652Z,2.10
2017-08-02T07:17:17.933Z,1.40
2017-08-02T07:19:47.187Z,1.60
2017-08-02T07:22:16.462Z,2.00
2017-08-02T07:24:45.725Z,2.17
2017-08-02T07:27:14.963Z,1.63
2017-08-02T07:29:44.250Z,2.10
2017-08-02T07:32:13.510Z,1.73
2017-08-02T07:34:42.763Z,2.10
2017-08-02T07:37:12.106Z,1.60
2017-08-02T07:39:41.390Z,1.97
2017-08-02T07:42:10.652Z,1.63
2017-08-02T07:44:39.896Z,1.77
2017-08-02T07:47:09.928Z,1.77
2017-08-02T07:49:39.351Z,1.73
2017-08-02T07:52:08.599Z,1.80
2017-08-02T07:54:37.861Z,1.80
2017-08-02T07:57:07.168Z,1.63
2017-08-02T07:59:36.406Z,1.70
2017-08-02T08:02:05.663Z,1.20
2017-08-02T08:04:34.943Z,1.53
2017-08-02T08:07:04.206Z,0.90
2017-08-02T08:09:33.474Z,1.57
2017-08-02T08:12:02.740Z,1.30
2017-08-02T08:14:32.027Z,1.20
2017-08-02T08:17:01.301Z,1.70
2017-08-02T08:19:30.589Z,1.63
2017-08-02T08:21:59.841Z,1.60
2017-08-02T08:24:29.206Z,1.30
2017-08-02T08:26:58.514Z,1.60
2017-08-02T08:29:27.761Z,1.33
2017-08-02T08:31:57.050Z,2.00
2017-08-02T08:34:27.094Z,1.20
2017-08-02T08:36:56.367Z,1.20
2017-08-02T08:39:25.607Z,1.20
2017-08-02T08:41:54.905Z,1.73
2017-08-02T08:44:24.186Z,1.50
2017-08-02T08:46:53.443Z,1.40
2017-08-02T08:49:22.718Z,1.40
2017-08-02T08:51:51.959Z,1.27
2017-08-02T08:54:21.233Z,1.53
2017-08-02T08:56:50.487Z,1.50
2017-08-02T08:59:19.830Z,1.83
2017-08-02T09:01:49.154Z,1.63
2017-08-02T09:04:18.420Z,1.37
2017-08-02T09:06:47.695Z,1.50
2017-08-02T09:09:16.943Z,1.57
2017-08-02T09:11:46.230Z,1.57
2017-08-02T09:14:15.783Z,1.40
2017-08-02T09:16:45.833Z,1.57
2017-08-02T09:19:15.104Z,1.77
2017-08-02T09:21:44.357Z,1.83
2017-08-02T09:24:13.630Z,2.00
2017-08-02T09:26:42.885Z,1.63
2017-08-02T09:29:12.134Z,1.70
2017-08-02T09:31:41.711Z,2.00
2017-08-02T09:34:11.835Z,1.40
2017-08-02T09:36:41.914Z,2.00
2017-08-02T09:39:11.165Z,1.63
2017-08-02T09:41:40.443Z,1.60
2017-08-02T09:44:09.701Z,1.70
2017-08-02T09:46:38.970Z,1.70
2017-08-02T09:49:08.230Z,1.50
2017-08-02T09:51:37.576Z,2.03
2017-08-02T09:54:07.602Z,1.60
2017-08-02T09:56:36.851Z,1.40
2017-08-02T09:59:06.117Z,1.40
2017-08-02T10:01:35.398Z,2.00
2017-08-02T10:04:05.418Z,1.70
2017-08-02T10:06:34.664Z,1.93
2017-08-02T10:09:03.919Z,1.60
2017-08-02T10:11:33.300Z,1.53
2017-08-02T10:14:02.610Z,1.43
2017-08-02T10:16:32.081Z,1.70
2017-08-02T10:19:01.351Z,1.47
2017-08-02T10:21:30.633Z,1.80
2017-08-02T10:23:59.931Z,2.00
2017-08-02T10:26:29.189Z,1.30
2017-08-02T10:28:58.429Z,1.57
2017-08-02T10:31:27.715Z,1.43
2017-08-02T10:33:56.961Z,1.50
2017-08-02T10:36:26.465Z,1.53
2017-08-02T10:38:55.750Z,1.30
2017-08-02T10:41:24.991Z,1.13
2017-08-02T10:43:54.322Z,1.20
2017-08-02T10:46:24.326Z,1.40
2017-08-02T10:48:53.592Z,1.30
2017-08-02T10:51:22.857Z,2.13
2017-08-02T10:53:52.109Z,1.50
2017-08-02T10:56:21.361Z,1.50
2017-08-02T10:58:50.625Z,1.37
2017-08-02T11:01:19.874Z,1.70
2017-08-02T11:03:49.145Z,1.70
2017-08-02T11:06:19.385Z,1.30
2017-08-02T11:08:48.992Z,1.67
2017-08-02T11:11:18.480Z,2.00
2017-08-02T11:13:48.507Z,1.60
2017-08-02T11:16:17.766Z,1.83
2017-08-02T11:18:47.037Z,1.90
2017-08-02T11:21:17.293Z,1.73
2017-08-02T11:23:46.577Z,1.80
2017-08-02T11:26:15.860Z,1.73
2017-08-02T11:28:45.327Z,1.73
2017-08-02T11:31:14.625Z,1.90
2017-08-02T11:33:44.653Z,2.27
2017-08-02T11:36:14.685Z,1.70
2017-08-02T11:38:44.082Z,1.80
2017-08-02T11:41:14.119Z,2.10
2017-08-02T11:43:43.500Z,2.10
2017-08-02T11:46:13.514Z,1.97
2017-08-02T11:48:42.790Z,1.80
2017-08-02T11:51:12.038Z,1.80
2017-08-02T11:53:41.305Z,1.60
2017-08-02T11:56:10.562Z,1.60
2017-08-02T11:58:39.920Z,1.57
2017-08-02T12:01:09.947Z,1.50
2017-08-02T12:03:39.211Z,2.00
2017-08-02T12:06:08.476Z,1.60
2017-08-02T12:08:37.725Z,1.63
2017-08-02T12:11:06.991Z,1.73
2017-08-02T12:13:36.252Z,1.63
2017-08-02T12:16:05.499Z,1.70
2017-08-02T12:18:34.762Z,1.87
2017-08-02T12:21:04.048Z,1.90
2017-08-02T12:23:33.281Z,2.00
2017-08-02T12:26:02.578Z,3.20
2017-08-02T12:28:31.828Z,2.77
2017-08-02T12:31:01.092Z,2.17
2017-08-02T12:33:30.360Z,8.27
2017-08-02T12:36:00.387Z,5.60
2017-08-02T12:38:29.654Z,3.40
2017-08-02T12:40:58.894Z,5.23
2017-08-02T12:43:28.146Z,3.67
2017-08-02T12:45:57.430Z,3.00
2017-08-02T12:48:26.705Z,1.83
2017-08-02T12:50:55.966Z,1.90
2017-08-02T12:53:25.221Z,2.13
2017-08-02T12:55:54.470Z,2.10
2017-08-02T12:58:23.749Z,1.97
2017-08-02T13:00:53.007Z,1.70
2017-08-02T13:03:22.284Z,2.03
2017-08-02T13:05:51.534Z,1.90
2017-08-02T13:08:20.796Z,1.87
2017-08-02T13:10:50.065Z,2.30
2017-08-02T13:13:19.311Z,2.40
2017-08-02T13:15:48.591Z,2.23
2017-08-02T13:18:17.858Z,1.70
2017-08-02T13:20:47.159Z,2.60
2017-08-02T13:23:16.429Z,2.57
2017-08-02T13:25:45.970Z,2.40
2017-08-02T13:28:15.219Z,2.27
2017-08-02T13:30:44.478Z,2.27
2017-08-02T13:33:13.737Z,1.93
2017-08-02T13:35:43.015Z,1.83
2017-08-02T13:38:12.282Z,1.80
2017-08-02T13:40:41.525Z,1.63
2017-08-02T13:43:10.838Z,2.00
2017-08-02T13:45:40.104Z,2.47
2017-08-02T13:48:09.341Z,1.70
2017-08-02T13:50:38.586Z,1.90
2017-08-02T13:53:08.016Z,1.70
2017-08-02T13:55:37.316Z,2.07
2017-08-02T13:58:07.324Z,2.37
2017-08-02T14:00:36.637Z,1.83
2017-08-02T14:03:05.896Z,2.00
2017-08-02T14:05:35.287Z,1.53
2017-08-02T14:08:04.557Z,2.30
2017-08-02T14:10:33.805Z,1.70
2017-08-02T14:13:03.237Z,2.00
2017-08-02T14:15:33.282Z,1.90
2017-08-02T14:18:02.543Z,2.20
2017-08-02T14:20:31.805Z,1.80
2017-08-02T14:23:01.075Z,2.00
2017-08-02T14:25:30.325Z,2.23
2017-08-02T14:27:59.861Z,2.30
2017-08-02T14:30:29.879Z,2.10
2017-08-02T14:32:59.139Z,1.97
2017-08-02T14:35:28.374Z,2.00
2017-08-02T14:37:57.719Z,2.07
2017-08-02T14:40:27.066Z,1.60
2017-08-02T14:42:56.338Z,2.30
2017-08-02T14:45:25.599Z,1.80
2017-08-02T14:47:55.896Z,2.17
2017-08-02T14:50:25.165Z,1.73
2017-08-02T14:52:54.420Z,1.87
2017-08-02T14:55:23.870Z,2.83
2017-08-02T14:57:53.903Z,1.87
2017-08-02T15:00:23.165Z,2.30
2017-08-02T15:02:52.416Z,2.03
2017-08-02T15:05:21.661Z,1.77
2017-08-02T15:07:50.949Z,2.00
2017-08-02T15:10:20.220Z,2.20
2017-08-02T15:12:49.719Z,1.97
2017-08-02T15:15:19.189Z,2.00
2017-08-02T15:17:48.529Z,1.93
2017-08-02T15:20:18.542Z,1.77
2017-08-02T15:22:47.810Z,2.23
2017-08-02T15:25:17.101Z,1.87
2017-08-02T15:27:46.359Z,2.00
2017-08-02T15:30:15.841Z,2.20
2017-08-02T15:32:45.948Z,1.73
2017-08-02T15:35:15.350Z,2.07
2017-08-02T15:37:44.597Z,2.30
2017-08-02T15:40:13.870Z,2.37
2017-08-02T15:42:43.869Z,1.77
2017-08-02T15:45:14.058Z,2.33
2017-08-02T15:47:43.301Z,2.17
2017-08-02T15:50:12.572Z,2.00
2017-08-02T15:52:41.830Z,1.90
2017-08-02T15:55:11.082Z,4.43
2017-08-02T15:57:40.371Z,2.47
2017-08-02T16:00:09.642Z,3.93
2017-08-02T16:02:38.891Z,3.67
2017-08-02T16:05:08.152Z,2.60
2017-08-02T16:07:38.146Z,2.57
2017-08-02T16:10:08.201Z,2.33
2017-08-02T16:12:37.454Z,2.50
2017-08-02T16:15:06.703Z,2.00
2017-08-02T16:17:36.009Z,2.40
2017-08-02T16:20:05.434Z,2.13
2017-08-02T16:22:34.676Z,1.87
2017-08-02T16:25:03.982Z,1.90
2017-08-02T16:27:33.234Z,2.10
2017-08-02T16:30:02.515Z,3.17
2017-08-02T16:32:31.937Z,2.87
2017-08-02T16:35:01.236Z,2.80
2017-08-02T16:37:30.475Z,2.60
2017-08-02T16:39:59.734Z,2.23
2017-08-02T16:42:29.305Z,2.37
2017-08-02T16:44:58.565Z,2.40
2017-08-02T16:47:27.893Z,2.47
2017-08-02T16:49:57.154Z,2.30
2017-08-02T16:52:26.428Z,2.93
2017-08-02T16:54:55.715Z,2.50
2017-08-02T16:57:24.965Z,2.90
2017-08-02T16:59:54.258Z,2.27
2017-08-02T17:02:23.495Z,3.17
2017-08-02T17:04:52.761Z,2.80
2017-08-02T17:07:22.044Z,2.60
2017-08-02T17:09:51.313Z,3.90
2017-08-02T17:12:20.698Z,3.07
2017-08-02T17:14:50.025Z,3.13
2017-08-02T17:17:19.291Z,2.97
2017-08-02T17:19:48.563Z,3.30
2017-08-02T17:22:17.822Z,2.80
2017-08-02T17:24:47.071Z,2.37
2017-08-02T17:27:16.337Z,2.53
2017-08-02T17:29:45.601Z,3.03
2017-08-02T17:32:15.549Z,2.83
2017-08-02T17:34:44.801Z,3.33
2017-08-02T17:37:14.071Z,3.60
2017-08-02T17:39:43.350Z,3.50
2017-08-02T17:42:12.626Z,3.00
2017-08-02T17:44:42.188Z,2.83
2017-08-02T17:47:11.681Z,2.90
2017-08-02T17:49:41.280Z,4.20
2017-08-02T17:52:10.582Z,3.03
2017-08-02T17:54:39.907Z,3.57
2017-08-02T17:57:09.195Z,3.20
2017-08-02T17:59:38.463Z,3.03
2017-08-02T18:02:07.697Z,3.53
2017-08-02T18:04:36.977Z,3.60
2017-08-02T18:07:06.218Z,3.17
2017-08-02T18:09:35.538Z,3.83
2017-08-02T18:12:04.852Z,3.97
2017-08-02T18:14:34.224Z,3.07
2017-08-02T18:17:03.437Z,3.03
2017-08-02T18:19:32.715Z,3.37
2017-08-02T18:22:02.946Z,3.13
2017-08-02T18:24:32.198Z,3.80
2017-08-02T18:27:01.469Z,3.30
2017-08-02T18:29:30.937Z,3.63
2017-08-02T18:32:00.262Z,3.60
2017-08-02T18:34:30.372Z,3.57
2017-08-02T18:36:59.630Z,3.57
2017-08-02T18:39:28.913Z,3.37
2017-08-02T18:41:58.193Z,3.73
2017-08-02T18:44:28.210Z,3.20
2017-08-02T18:46:57.492Z,3.60
2017-08-02T18:49:26.791Z,3.50
2017-08-02T18:51:56.084Z,3.87
2017-08-02T18:54:25.360Z,3.53
2017-08-02T18:56:54.654Z,3.73
2017-08-02T18:59:24.783Z,4.67
2017-08-02T19:01:54.030Z,4.63
2017-08-02T19:04:24.065Z,3.93
2017-08-02T19:06:53.391Z,3.60
2017-08-02T19:09:22.675Z,3.77
2017-08-02T19:11:52.187Z,3.57
2017-08-02T19:14:21.442Z,3.80
2017-08-02T19:16:50.767Z,4.23
2017-08-02T19:19:20.069Z,4.10
2017-08-02T19:21:49.330Z,3.93
2017-08-02T19:24:18.719Z,3.10
2017-08-02T19:26:48.027Z,4.07
2017-08-02T19:29:17.775Z,3.60
2017-08-02T19:31:47.057Z,4.00
2017-08-02T19:34:16.609Z,3.30
2017-08-02T19:36:46.728Z,3.90
2017-08-02T19:39:17.168Z,3.80
2017-08-02T19:41:46.878Z,3.53
2017-08-02T19:44:16.590Z,4.20
2017-08-02T19:46:45.929Z,3.87
2017-08-02T19:49:15.503Z,5.00
2017-08-02T19:51:45.038Z,3.67
2017-08-02T19:54:14.418Z,5.23
2017-08-02T19:56:43.784Z,3.40
2017-08-02T19:59:13.059Z,3.40
2017-08-02T20:01:42.371Z,3.30
2017-08-02T20:04:11.617Z,3.70
2017-08-02T20:06:41.053Z,3.80
2017-08-02T20:09:10.352Z,4.17
2017-08-02T20:11:39.658Z,3.37
2017-08-02T20:14:08.946Z,3.23
2017-08-02T20:16:38.519Z,3.33
2017-08-02T20:19:08.656Z,3.37
2017-08-02T20:21:38.687Z,4.23
2017-08-02T20:24:08.045Z,3.40
2017-08-02T20:26:37.363Z,3.67
2017-08-02T20:29:06.680Z,3.93
2017-08-02T20:31:35.999Z,3.20
2017-08-02T20:34:05.274Z,4.20
2017-08-02T20:36:34.566Z,3.80
2017-08-02T20:39:03.878Z,3.73
2017-08-02T20:41:33.917Z,3.73
2017-08-02T20:44:03.172Z,3.23
2017-08-02T20:46:32.890Z,4.13
2017-08-02T20:49:02.283Z,3.60
2017-08-02T20:51:31.578Z,3.93
2017-08-02T20:54:01.142Z,3.83
2017-08-02T20:56:30.454Z,4.03
2017-08-02T20:58:59.795Z,5.90
2017-08-02T21:01:29.169Z,6.13
2017-08-02T21:03:58.509Z,3.50
2017-08-02T21:06:27.790Z,4.23
2017-08-02T21:08:57.031Z,3.60
2017-08-02T21:11:26.413Z,3.93
2017-08-02T21:13:56.450Z,3.63
2017-08-02T21:16:25.713Z,4.60
2017-08-02T21:18:55.086Z,3.70
2017-08-02T21:21:24.405Z,4.33
2017-08-02T21:23:53.721Z,4.00
2017-08-02T21:26:22.986Z,3.80
2017-08-02T21:28:52.252Z,3.50
2017-08-02T21:31:21.549Z,4.03
2017-08-02T21:33:50.795Z,4.30
2017-08-02T21:36:20.084Z,3.83
2017-08-02T21:38:50.116Z,3.93
2017-08-02T21:41:19.407Z,3.73
2017-08-02T21:43:48.663Z,3.83
2017-08-02T21:46:17.920Z,3.73
2017-08-02T21:48:47.238Z,4.33
2017-08-02T21:51:16.501Z,4.10
2017-08-02T21:53:45.768Z,4.50
2017-08-02T21:56:15.041Z,4.50
2017-08-02T21:58:44.555Z,4.17
2017-08-02T22:01:31.328Z,3.23
2017-08-02T22:04:00.636Z,4.10
2017-08-02T22:06:30.178Z,3.50
2017-08-02T22:08:59.478Z,3.50
2017-08-02T22:11:28.744Z,4.33
2017-08-02T22:13:58.023Z,3.80
2017-08-02T22:16:27.375Z,3.97
2017-08-02T22:19:00.769Z,4.23
2017-08-02T22:21:30.633Z,4.23
2017-08-02T22:24:01.106Z,3.70
2017-08-02T22:26:34.414Z,4.53
2017-08-02T22:29:09.267Z,3.87
2017-08-02T22:31:39.373Z,3.60
2017-08-02T22:34:11.227Z,3.93
2017-08-02T22:36:40.562Z,4.60
2017-08-02T22:39:10.881Z,4.37
2017-08-02T22:41:40.562Z,3.60
2017-08-02T22:44:09.990Z,4.20
2017-08-02T22:46:39.701Z,4.40
2017-08-02T22:49:09.315Z,5.07
2017-08-02T22:51:38.693Z,4.80
2017-08-02T22:54:10.594Z,4.20
2017-08-02T22:56:39.954Z,4.70
2017-08-02T22:59:09.513Z,3.67
2017-08-02T23:01:38.948Z,3.90
2017-08-02T23:04:08.291Z,5.27
2017-08-02T23:06:37.587Z,4.20
2017-08-02T23:09:06.852Z,3.20
2017-08-02T23:11:36.111Z,4.67
2017-08-02T23:14:05.361Z,4.10
2017-08-02T23:16:34.618Z,4.03
2017-08-02T23:19:03.925Z,3.90
2017-08-02T23:21:33.200Z,4.53
2017-08-02T23:24:02.454Z,4.00
2017-08-02T23:26:31.709Z,3.73
2017-08-02T23:29:01.012Z,3.87
2017-08-02T23:31:30.265Z,3.57
2017-08-02T23:33:59.519Z,4.23
2017-08-02T23:36:28.917Z,4.10
2017-08-02T23:38:59.030Z,4.60
2017-08-02T23:41:28.279Z,4.60
2017-08-02T23:43:57.558Z,4.27
2017-08-02T23:46:26.824Z,3.83
2017-08-02T23:48:56.106Z,4.73
2017-08-02T23:51:26.202Z,5.60
2017-08-02T23:53:56.269Z,4.93
2017-08-02T23:56:25.539Z,4.73
2017-08-02T23:58:54.802Z,4.47
